Date,TemperatureHighF,TemperatureAvgF,TemperatureLowF,DewpointHighF,DewpointAvgF,DewpointLowF,HumidityHigh,HumidityAvg,HumidityLow,PressureMaxIn,PressureMinIn,WindSpeedMaxMPH,WindSpeedAvgMPH,GustSpeedMaxMPH,PrecipitationSumIn
2013-1-5,47.8,47.8,47.8,44.2,44.2,44.2,83,83,83,29.33,29.33,8,8,11,0.00
2013-4-2,36.0,36.0,36.0,25.2,25.2,25.2,54,54,54,29.21,29.21,6,6,8,0.00
2013-4-11,48.0,45.6,42.6,38.8,38.0,37.0,74,67,62,29.31,29.31,5,3,8,0.08
2013-5-2,86.7,72.1,63.1,67.2,60.8,55.7,97,63,38,29.43,29.23,8,5,14,0.09
2013-5-3,82.0,67.3,57.0,67.6,61.1,54.1,96,77,45,29.28,29.20,8,3,11,0.09
2013-5-4,73.9,62.6,52.2,59.2,55.0,51.3,96,72,50,29.44,29.27,10,4,15,0.00
2013-5-5,81.9,68.4,55.4,60.1,56.7,52.1,88,62,38,29.54,29.45,8,2,11,0.00
2013-5-6,80.4,67.8,62.6,64.7,58.5,51.8,95,68,40,29.51,29.41,8,4,14,0.07
2013-5-7,78.3,66.4,59.2,65.3,61.6,58.6,99,82,54,29.45,29.36,8,3,12,0.07
2013-5-8,82.4,69.2,60.4,62.7,59.5,57.7,98,68,38,29.43,29.35,4,2,7,0.02
2013-5-9,81.9,70.9,61.3,61.3,56.9,52.5,80,56,32,29.44,29.38,8,3,12,0.01
2013-5-10,82.0,70.9,58.8,58.0,54.6,51.0,76,50,30,29.40,29.22,15,4,21,0.01
2013-5-11,72.5,64.4,57.4,62.7,59.1,56.1,96,80,63,29.25,29.14,12,5,17,0.01
2013-5-12,63.1,58.2,54.3,56.2,53.1,49.2,96,79,68,29.18,29.11,19,11,29,1.41
2013-5-13,65.1,56.8,50.7,49.6,47.1,43.1,81,64,41,29.33,29.18,24,11,31,3.04
2013-5-14,69.6,57.5,49.1,51.8,48.3,44.6,89,66,43,29.33,29.28,14,5,20,0.01
2013-5-15,77.7,64.0,50.9,56.8,53.2,48.9,91,64,39,29.28,29.16,7,2,8,0.00
2013-5-16,81.1,67.9,53.4,59.1,55.0,51.0,89,59,31,29.20,29.05,11,4,14,0.00
2013-5-17,72.1,65.9,56.5,62.2,59.9,56.2,99,77,60,29.10,29.04,10,4,14,0.07
2013-5-18,78.4,65.7,54.0,57.5,54.7,52.6,99,65,33,29.33,29.14,12,4,18,0.11
2013-5-19,85.3,70.8,54.9,59.2,55.9,51.5,95,56,30,29.33,29.12,10,4,14,0.04
2013-5-20,75.9,65.1,53.4,59.5,53.7,49.1,98,63,32,29.33,29.19,8,2,11,0.04
2013-5-21,74.7,64.3,53.4,53.4,50.2,45.9,83,55,29,29.33,29.20,14,4,20,0.01
2013-5-22,73.8,62.3,55.4,60.1,52.2,48.5,90,64,37,29.21,29.04,11,3,14,0.01
2013-5-23,65.5,57.6,51.4,51.5,47.9,44.1,81,63,51,29.09,28.95,16,8,20,0.07
2013-5-24,67.8,58.5,50.4,51.2,47.6,43.7,80,60,44,29.13,28.99,8,3,11,0.01
2013-5-25,69.1,58.0,49.8,50.7,48.3,46.7,91,65,39,29.16,29.10,8,3,12,0.00
2013-5-26,63.9,57.0,50.4,52.2,47.1,40.9,94,64,38,29.18,29.09,11,4,15,0.05
2013-5-27,61.3,53.3,47.3,48.5,44.8,40.4,90,67,50,29.22,29.16,13,4,21,0.00
2013-5-28,70.7,59.7,49.5,55.3,50.9,45.4,88,68,41,29.21,29.08,11,4,21,0.00
2013-5-29,79.7,66.2,51.8,59.6,55.6,50.8,97,65,37,29.09,28.93,7,2,11,0.00
2013-5-30,67.3,57.4,51.8,60.7,55.1,51.0,99,90,70,28.97,28.87,9,2,11,0.48
2013-5-31,66.4,56.0,49.1,55.0,50.9,48.9,99,80,52,29.01,28.92,10,3,14,0.04
2013-6-1,71.1,57.3,47.8,55.3,52.1,47.6,99,81,49,29.10,29.00,6,2,10,0.11
2013-6-2,72.1,59.0,50.7,58.3,53.9,49.7,98,81,50,29.25,29.09,14,3,20,0.40
2013-6-3,61.2,56.0,52.2,54.5,52.1,49.7,94,83,71,29.32,29.24,17,11,27,0.05
2013-6-4,68.7,57.9,52.0,59.5,54.3,50.0,95,84,66,29.32,29.23,16,9,26,0.07
2013-6-5,73.4,62.2,54.7,61.4,57.9,54.0,97,83,52,29.42,29.31,6,2,8,0.04
2013-6-6,76.1,64.4,54.9,65.1,59.4,54.0,97,81,56,29.47,29.41,8,2,12,0.25
2013-6-7,85.1,70.5,58.8,62.7,59.5,56.8,95,65,30,29.44,29.35,7,2,9,0.01
2013-6-8,88.3,74.6,64.2,61.2,58.9,56.6,79,53,27,29.38,29.30,8,3,9,0.24
2013-6-10,84.2,74.9,61.5,63.9,61.5,59.9,97,59,38,29.18,29.07,9,4,12,0.18
2013-6-11,75.2,66.9,56.7,61.4,58.7,52.5,88,70,52,29.27,29.19,8,4,13,0.08
2013-6-12,81.3,68.2,53.4,61.0,56.6,51.1,91,62,36,29.46,29.27,8,2,11,0.01
2013-6-13,87.4,74.7,61.9,59.1,55.6,52.1,68,45,26,29.49,29.39,9,3,14,0.00
2013-6-14,88.5,76.9,62.8,64.4,60.3,55.0,74,51,29,29.42,29.36,9,3,15,0.00
2013-6-15,67.1,65.1,63.0,61.4,60.5,59.7,87,81,74,29.39,29.36,4,1,5,0.00
2013-6-17,97.7,89.9,78.3,69.1,67.3,66.0,60,41,29,29.44,29.38,8,2,10,0.00
2013-6-18,99.9,87.0,71.1,71.3,67.5,64.4,82,48,24,29.44,29.36,7,2,9,0.00
2013-6-19,100.9,89.5,73.9,72.2,66.0,50.3,68,42,12,29.41,29.34,8,2,9,0.00
2013-6-20,100.8,88.3,76.5,73.9,70.4,67.6,72,51,30,29.40,29.28,8,4,11,0.00
2013-6-21,99.9,87.5,74.8,74.8,70.2,67.7,85,53,29,29.32,29.27,6,2,8,0.00
2013-6-22,88.9,79.5,73.6,73.9,70.6,68.6,83,70,51,29.33,29.29,4,1,5,0.00
2013-6-24,76.3,65.8,57.0,64.5,60.0,56.5,99,79,60,29.25,29.16,15,8,22,0.52
2013-6-25,61.0,58.2,56.3,58.5,55.7,52.2,97,89,81,29.41,29.20,11,5,15,0.52
2013-6-26,66.7,59.1,54.1,53.8,51.6,49.8,83,71,55,29.58,29.41,17,10,25,0.02
2013-6-27,72.3,59.9,52.5,56.8,53.2,49.0,90,74,47,29.58,29.49,12,5,18,0.20
2013-6-28,76.6,63.9,55.8,59.2,56.8,54.0,95,75,41,29.49,29.40,7,2,10,0.47
2013-6-29,78.6,67.8,57.0,58.3,54.6,48.4,91,59,27,29.42,29.31,11,3,14,0.01
2013-6-30,77.7,66.3,57.2,58.1,54.1,47.9,81,58,34,29.44,29.35,22,7,34,0.00
2013-7-1,70.9,59.2,52.5,51.0,49.1,47.4,80,63,40,29.50,29.44,8,4,13,0.00
2013-7-2,87.8,79.0,67.3,56.9,54.1,49.2,59,35,21,29.51,29.41,4,2,8,0.00
2013-7-3,73.0,65.7,61.3,59.2,55.1,53.3,74,62,50,29.44,29.41,3,1,5,0.00
2013-7-8,88.7,83.5,73.4,64.2,61.0,58.5,52,39,31,29.66,29.56,7,2,10,0.00
2013-7-9,72.1,70.9,70.0,58.8,58.5,58.0,60,57,53,29.61,29.60,4,4,9,0.00
2013-7-10,91.0,85.3,73.9,64.0,60.5,57.3,53,36,28,29.35,29.21,8,3,12,0.00
2013-7-11,79.5,71.8,63.0,63.4,59.2,52.4,77,58,34,29.35,29.19,13,6,18,0.00
2013-7-12,77.5,67.5,57.4,56.6,54.7,53.1,82,58,36,29.43,29.36,11,6,17,0.00
2013-7-13,79.2,70.0,58.5,58.2,56.0,53.9,82,55,34,29.45,29.40,11,5,16,0.00
2013-7-14,84.7,73.0,63.0,56.9,54.9,50.7,67,47,26,29.44,29.37,14,6,18,0.00
2013-7-15,80.2,71.1,62.8,61.9,56.0,49.3,70,52,25,29.48,29.38,14,5,21,0.00
2013-7-16,87.3,73.6,57.9,55.9,53.0,50.2,74,43,21,29.57,29.49,6,3,11,0.00
2013-7-17,90.9,77.4,62.6,60.5,57.1,54.0,72,44,21,29.58,29.49,5,2,8,0.00
2013-7-18,94.5,79.6,66.6,63.4,60.1,58.1,68,45,25,29.54,29.46,7,2,11,0.00
2013-7-19,93.0,80.0,71.2,65.9,62.4,60.3,67,49,29,29.48,29.34,4,2,12,0.00
2013-7-20,88.2,79.6,70.0,63.7,59.1,55.2,58,43,25,29.44,29.33,12,6,16,0.00
2013-7-21,89.6,76.4,64.6,55.7,52.5,50.2,54,36,18,29.51,29.44,8,2,11,0.00
2013-7-22,92.5,77.4,61.9,58.8,56.1,53.5,68,42,21,29.51,29.33,9,2,12,0.00
2013-7-23,92.1,81.5,66.0,63.5,55.0,47.1,64,35,14,29.32,29.25,8,3,11,0.00
2013-7-24,93.4,82.2,69.3,59.4,49.0,31.6,60,27,10,29.35,29.28,10,3,14,0.00
2013-7-25,91.4,78.3,68.0,63.5,57.1,45.8,62,40,25,29.39,29.32,5,2,8,0.00
2013-7-26,96.3,83.0,67.6,65.2,61.7,58.8,72,43,22,29.40,29.31,9,2,15,0.00
2013-7-27,100.4,86.0,71.4,68.9,65.4,62.2,70,45,24,29.35,29.27,6,2,9,0.00
2013-7-28,101.1,88.1,73.0,69.3,63.4,50.3,77,41,12,29.36,29.30,10,3,14,0.00
2013-7-29,104.5,88.9,76.3,69.4,64.8,57.6,54,38,22,29.35,29.19,10,4,16,0.00
2013-7-30,82.0,75.6,68.5,68.4,61.1,55.0,89,55,33,29.41,29.25,21,9,30,0.06
2013-7-31,88.5,77.4,66.0,61.8,59.4,55.0,75,48,28,29.44,29.37,10,5,14,0.01
2013-8-1,96.1,80.6,69.6,63.1,60.3,58.4,62,44,21,29.46,29.40,7,3,17,0.00
2013-8-2,97.5,83.7,67.5,65.4,61.6,58.6,74,43,20,29.48,29.36,8,2,11,0.00
2013-8-3,103.1,87.6,68.7,67.6,61.2,50.1,78,38,11,29.40,29.33,8,2,11,0.00
2013-8-4,102.2,87.4,77.4,65.2,61.6,49.7,53,36,11,29.49,29.37,7,3,12,0.00
2013-8-5,99.7,84.7,72.3,66.8,63.9,59.7,69,45,20,29.51,29.38,8,3,13,0.00
2013-8-6,103.6,88.2,71.8,68.0,63.8,50.3,69,40,11,29.43,29.32,7,2,11,0.00
2013-8-7,102.7,89.3,75.2,67.6,61.2,49.7,62,35,11,29.36,29.29,8,2,11,0.00
2013-8-8,106.3,89.2,76.1,65.1,59.9,49.3,51,33,10,29.37,29.30,7,2,11,0.00
2013-8-9,104.5,91.4,77.9,69.1,59.3,49.2,55,31,10,29.33,29.18,9,2,15,0.00